Robinson, North Dakota
Current Conditions -  °F | °C
As of 9:55 PM on Saturday 25 Oct 2014 (Local Time) from K46D Reporting Station
Haze Haze  
Wind Chill: 32°   Ceiling: Unl
Heat Index: 37°   Visibility: 1.5mi
Dew Point: 28°   Wind: 7mph
Humidity: 70%   Direction: 170°S
Pressure: 30.01"   Gusts: NA
Location:  47.14°N, 99.78°W
Report Text: K46D 260255Z AUTO 17006KT 1 1/2SM HZ CLR 03/M02 A3001 RMK AO2 VSBY 3/4V5
Loading
Personal Weather Stations






























Interactive Weather Map New forecast layout! Learn more

10-Day Weather Forecast

Advertisements
Track Severe Weather on mobile